createdAt,value
2019-03-16T00:02:07.751Z,0.90
2019-03-16T00:04:35.908Z,0.93
2019-03-16T00:07:05.016Z,0.33
2019-03-16T00:09:34.223Z,2.00
2019-03-16T00:12:05.310Z,0.17
2019-03-16T00:14:35.553Z,0.30
2019-03-16T00:17:02.917Z,0.50
2019-03-16T00:19:32.643Z,0.50
2019-03-16T00:22:01.101Z,0.20
2019-03-16T00:24:32.916Z,0.97
2019-03-16T00:27:00.926Z,3.13
2019-03-16T00:29:31.093Z,0.47
2019-03-16T00:32:12.577Z,0.53
2019-03-16T00:34:33.541Z,0.20
2019-03-16T00:37:03.614Z,0.73
2019-03-16T00:39:36.618Z,2.57
2019-03-16T00:42:01.461Z,0.73
2019-03-16T00:44:28.703Z,4.40
2019-03-16T00:46:58.705Z,0.33
2019-03-16T00:49:28.758Z,0.90
2019-03-16T00:51:57.890Z,1.50
2019-03-16T00:54:26.802Z,2.00
2019-03-16T00:56:55.413Z,0.70
2019-03-16T00:59:22.753Z,0.20
2019-03-16T01:01:51.880Z,0.60
2019-03-16T01:04:23.358Z,0.67
2019-03-16T01:06:52.233Z,0.37
2019-03-16T01:09:21.500Z,0.57
2019-03-16T01:11:49.482Z,1.03
2019-03-16T01:14:16.699Z,0.60
2019-03-16T01:16:46.170Z,0.40
2019-03-16T01:19:15.684Z,1.37
2019-03-16T01:21:45.763Z,0.40
2019-03-16T01:24:19.315Z,0.50
2019-03-16T01:26:48.363Z,0.10
2019-03-16T01:29:19.227Z,0.10
2019-03-16T01:31:47.609Z,0.50
2019-03-16T01:34:15.529Z,0.33
2019-03-16T01:36:42.667Z,1.53
2019-03-16T01:39:12.949Z,0.30
2019-03-16T01:41:41.212Z,0.43
2019-03-16T01:44:10.350Z,0.10
2019-03-16T01:46:38.273Z,0.97
2019-03-16T01:49:07.711Z,0.53
2019-03-16T01:51:36.651Z,1.90
2019-03-16T01:54:06.273Z,0.33
2019-03-16T01:56:33.832Z,0.50
2019-03-16T01:59:03.146Z,0.53
2019-03-16T02:01:32.443Z,0.20
2019-03-16T02:04:00.186Z,0.20
2019-03-16T02:06:30.403Z,0.33
2019-03-16T02:09:00.444Z,0.20
2019-03-16T02:11:27.936Z,0.43
2019-03-16T02:13:55.222Z,0.23
2019-03-16T02:16:25.894Z,0.20
2019-03-16T02:18:54.108Z,0.10
2019-03-16T02:21:24.484Z,1.43
2019-03-16T02:23:54.244Z,0.10
2019-03-16T02:26:21.946Z,0.20
2019-03-16T02:28:51.111Z,0.20
2019-03-16T02:31:18.828Z,0.30
2019-03-16T02:33:48.631Z,0.10
2019-03-16T02:36:16.463Z,0.53
2019-03-16T02:38:45.424Z,0.13
2019-03-16T02:41:16.304Z,0.10
2019-03-16T02:43:47.667Z,0.50
2019-03-16T02:46:15.976Z,0.13
2019-03-16T02:48:43.925Z,0.07
2019-03-16T02:51:14.978Z,0.60
2019-03-16T02:53:42.298Z,0.10
2019-03-16T02:56:11.675Z,0.13
2019-03-16T02:58:39.457Z,0.33
2019-03-16T03:01:11.471Z,0.20
2019-03-16T03:03:41.001Z,0.60
2019-03-16T03:06:08.735Z,1.90
2019-03-16T03:08:37.215Z,0.10
2019-03-16T03:11:05.023Z,1.03
2019-03-16T03:13:40.459Z,0.20
2019-03-16T03:16:05.549Z,0.40
2019-03-16T03:18:33.164Z,0.20
2019-03-16T03:21:02.884Z,0.53
2019-03-16T03:23:30.047Z,0.50
2019-03-16T03:25:59.787Z,0.33
2019-03-16T03:28:30.309Z,2.10
2019-03-16T03:30:59.634Z,0.57
2019-03-16T03:33:56.449Z,2.43
2019-03-16T03:35:59.353Z,0.47
2019-03-16T03:38:27.154Z,0.70
2019-03-16T03:40:54.797Z,0.63
2019-03-16T03:43:22.319Z,1.03
2019-03-16T03:45:51.753Z,1.23
2019-03-16T03:48:18.996Z,1.13
2019-03-16T03:50:47.585Z,0.40
2019-03-16T03:53:15.628Z,0.43
2019-03-16T03:55:46.029Z,0.80
2019-03-16T03:58:13.750Z,0.30
2019-03-16T04:00:41.693Z,1.37
2019-03-16T04:03:10.778Z,1.63
2019-03-16T04:05:40.778Z,1.50
2019-03-16T04:08:09.317Z,0.50
2019-03-16T04:10:36.672Z,1.07
2019-03-16T04:13:04.047Z,0.10
2019-03-16T04:15:33.897Z,0.27
2019-03-16T04:18:04.491Z,0.20
2019-03-16T04:20:33.514Z,0.23
2019-03-16T04:23:02.382Z,0.23
2019-03-16T04:25:32.966Z,0.50
2019-03-16T04:28:00.931Z,1.60
2019-03-16T04:30:31.374Z,0.63
2019-03-16T04:33:04.529Z,0.37
2019-03-16T04:35:33.163Z,0.23
2019-03-16T04:38:02.404Z,0.97
2019-03-16T04:40:30.548Z,0.73
2019-03-16T04:42:58.892Z,0.93
2019-03-16T04:45:27.915Z,1.20
2019-03-16T04:47:59.423Z,1.73
2019-03-16T04:50:30.492Z,1.27
2019-03-16T04:53:05.823Z,1.63
2019-03-16T04:55:59.927Z,1.47
2019-03-16T04:58:24.866Z,1.37
2019-03-16T05:00:55.592Z,1.10
2019-03-16T05:03:23.902Z,0.63
2019-03-16T05:05:55.723Z,1.70
2019-03-16T05:08:24.071Z,0.37
2019-03-16T05:10:54.690Z,1.13
2019-03-16T05:13:24.979Z,1.13
2019-03-16T05:15:52.076Z,0.80
2019-03-16T05:18:20.245Z,1.23
2019-03-16T05:20:47.498Z,1.60
2019-03-16T05:23:15.356Z,1.03
2019-03-16T05:25:43.435Z,0.40
2019-03-16T05:28:11.225Z,0.93
2019-03-16T05:30:41.122Z,1.50
2019-03-16T05:33:13.328Z,0.83
2019-03-16T05:35:40.470Z,2.13
2019-03-16T05:38:07.986Z,0.60
2019-03-16T05:40:39.555Z,1.23
2019-03-16T05:43:08.511Z,2.23
2019-03-16T05:45:36.239Z,0.60
2019-03-16T05:48:05.699Z,0.73
2019-03-16T05:50:34.074Z,1.97
2019-03-16T05:53:03.401Z,2.17
2019-03-16T05:55:31.001Z,2.33
2019-03-16T05:58:01.405Z,3.53
2019-03-16T06:00:28.974Z,1.93
2019-03-16T06:02:56.821Z,1.83
2019-03-16T06:05:26.592Z,3.03
2019-03-16T06:07:58.541Z,1.70
2019-03-16T06:10:26.220Z,3.87
2019-03-16T06:12:54.562Z,3.15
2019-03-16T06:15:25.346Z,2.83
2019-03-16T06:17:53.008Z,3.33
2019-03-16T06:20:20.150Z,2.60
2019-03-16T06:22:47.473Z,3.70
2019-03-16T06:25:14.764Z,3.47
2019-03-16T06:27:43.446Z,3.30
2019-03-16T06:30:10.839Z,2.57
2019-03-16T06:32:41.100Z,1.30
2019-03-16T06:35:23.359Z,7.43
2019-03-16T06:37:45.403Z,3.53
2019-03-16T06:40:12.990Z,2.73
2019-03-16T06:42:42.102Z,2.70
2019-03-16T06:45:09.780Z,3.37
2019-03-16T06:47:37.134Z,9.20
2019-03-16T06:50:07.013Z,3.43
2019-03-16T06:52:36.424Z,6.73
2019-03-16T06:55:04.041Z,7.33
2019-03-16T06:57:33.627Z,8.17
2019-03-16T07:00:03.526Z,6.50
2019-03-16T07:02:31.697Z,5.10
2019-03-16T07:05:01.191Z,3.00
2019-03-16T07:07:30.744Z,5.60
2019-03-16T07:09:57.998Z,2.80
2019-03-16T07:12:26.653Z,4.97
2019-03-16T07:14:54.450Z,4.80
2019-03-16T07:17:23.485Z,5.40
2019-03-16T07:19:53.051Z,6.03
2019-03-16T07:22:20.365Z,3.80
2019-03-16T07:24:47.739Z,7.50
2019-03-16T07:27:25.673Z,4.53
2019-03-16T07:29:46.806Z,3.43
2019-03-16T07:32:20.640Z,5.07
2019-03-16T07:34:49.276Z,4.50
2019-03-16T07:37:16.797Z,3.93
2019-03-16T07:39:44.209Z,7.53
2019-03-16T07:42:11.341Z,6.53
2019-03-16T07:44:38.576Z,7.43
2019-03-16T07:47:06.378Z,3.30
2019-03-16T07:49:34.236Z,5.47
2019-03-16T07:52:01.627Z,3.63
2019-03-16T07:54:31.207Z,5.07
2019-03-16T07:56:58.648Z,6.70
2019-03-16T07:59:26.129Z,3.63
2019-03-16T08:01:53.443Z,8.13
2019-03-16T08:04:22.229Z,3.70
2019-03-16T08:06:50.413Z,5.70
2019-03-16T08:09:17.561Z,7.63
2019-03-16T08:11:45.148Z,3.17
2019-03-16T08:14:12.539Z,7.80
2019-03-16T08:16:39.923Z,4.70
2019-03-16T08:19:07.262Z,2.87
2019-03-16T08:21:35.613Z,2.37
2019-03-16T08:24:03.041Z,7.00
2019-03-16T08:26:30.362Z,4.27
2019-03-16T08:28:59.531Z,5.43
2019-03-16T08:31:26.961Z,4.33
2019-03-16T08:33:54.227Z,4.67
2019-03-16T08:36:21.682Z,8.23
2019-03-16T08:38:49.010Z,3.67
2019-03-16T08:41:16.491Z,4.10
2019-03-16T08:43:43.864Z,4.17
2019-03-16T08:46:11.102Z,6.53
2019-03-16T08:48:38.427Z,3.23
2019-03-16T08:51:07.698Z,2.77
2019-03-16T08:53:35.070Z,6.73
2019-03-16T08:56:02.348Z,3.30
2019-03-16T08:58:30.186Z,3.20
2019-03-16T09:00:59.150Z,4.27
2019-03-16T09:03:26.649Z,4.13
2019-03-16T09:05:54.772Z,5.67
2019-03-16T09:08:22.157Z,7.40
2019-03-16T09:10:50.059Z,10.27
2019-03-16T09:13:17.353Z,7.97
2019-03-16T09:15:45.032Z,5.20
2019-03-16T09:18:13.278Z,4.40
2019-03-16T09:20:40.784Z,5.53
2019-03-16T09:23:08.302Z,5.57
2019-03-16T09:25:35.729Z,3.30
2019-03-16T09:28:04.148Z,5.50
2019-03-16T09:30:31.399Z,2.77
2019-03-16T09:32:58.766Z,5.30
2019-03-16T09:35:28.060Z,8.33
2019-03-16T09:37:55.318Z,9.20
2019-03-16T09:40:22.710Z,11.17
2019-03-16T09:42:49.983Z,4.27
2019-03-16T09:45:17.276Z,11.23
2019-03-16T09:47:47.043Z,8.00
2019-03-16T09:50:14.707Z,8.73
2019-03-16T09:52:43.962Z,6.60
2019-03-16T09:55:11.227Z,4.17
2019-03-16T09:57:38.555Z,5.30
2019-03-16T10:00:07.747Z,3.97
2019-03-16T10:02:34.880Z,6.83
2019-03-16T10:05:02.202Z,6.40
2019-03-16T10:07:29.906Z,7.03
2019-03-16T10:09:57.462Z,5.07
2019-03-16T10:12:24.846Z,1.90
2019-03-16T10:14:52.376Z,5.50
2019-03-16T10:17:19.659Z,3.20
2019-03-16T10:19:48.258Z,2.57
2019-03-16T10:22:15.788Z,2.53
2019-03-16T10:24:43.242Z,2.00
2019-03-16T10:27:10.636Z,2.67
2019-03-16T10:29:38.053Z,5.57
2019-03-16T10:32:05.479Z,5.33
2019-03-16T10:34:32.852Z,3.07
2019-03-16T10:37:00.516Z,5.87
2019-03-16T10:39:27.773Z,3.30
2019-03-16T10:41:56.383Z,3.30
2019-03-16T10:44:23.904Z,4.57
2019-03-16T10:46:51.660Z,2.27
2019-03-16T10:49:19.165Z,5.50
2019-03-16T10:51:46.527Z,2.43
2019-03-16T10:54:14.563Z,2.80
2019-03-16T10:56:42.039Z,2.90
2019-03-16T10:59:10.232Z,2.57
2019-03-16T11:01:37.727Z,7.13
2019-03-16T11:04:05.055Z,1.40
2019-03-16T11:06:32.330Z,5.27
2019-03-16T11:08:59.751Z,5.80
2019-03-16T11:11:26.971Z,2.03
2019-03-16T11:13:54.592Z,6.67
2019-03-16T11:16:21.995Z,6.67
2019-03-16T11:18:49.514Z,3.60
2019-03-16T11:21:16.646Z,2.60
2019-03-16T11:23:43.813Z,1.37
2019-03-16T11:26:11.271Z,1.80
2019-03-16T11:28:40.351Z,3.30
2019-03-16T11:31:07.764Z,2.43
2019-03-16T11:33:35.157Z,2.10
2019-03-16T11:36:02.600Z,1.47
2019-03-16T11:38:29.972Z,2.43
2019-03-16T11:40:57.258Z,5.03
2019-03-16T11:43:24.358Z,2.80
2019-03-16T11:45:51.771Z,3.13
2019-03-16T11:48:19.345Z,2.40
2019-03-16T11:50:48.831Z,2.73
2019-03-16T11:53:16.067Z,1.37
2019-03-16T11:55:43.344Z,2.40
2019-03-16T11:58:10.841Z,0.77
2019-03-16T12:00:38.399Z,1.63
2019-03-16T12:03:06.082Z,3.33
2019-03-16T12:05:33.601Z,2.03
2019-03-16T12:08:00.890Z,4.13
2019-03-16T12:10:28.417Z,3.90
2019-03-16T12:12:55.542Z,1.70
2019-03-16T12:15:22.845Z,0.90
2019-03-16T12:17:50.237Z,1.20
2019-03-16T12:20:18.578Z,1.30
2019-03-16T12:22:46.426Z,1.17
2019-03-16T12:25:13.761Z,2.73
2019-03-16T12:27:41.209Z,1.27
2019-03-16T12:30:08.821Z,0.70
2019-03-16T12:32:36.134Z,1.03
2019-03-16T12:35:05.353Z,3.83
2019-03-16T12:37:32.817Z,1.20
2019-03-16T12:40:00.484Z,0.70
2019-03-16T12:42:28.149Z,3.80
2019-03-16T12:44:57.600Z,0.53
2019-03-16T12:47:24.914Z,3.97
2019-03-16T12:49:54.002Z,0.40
2019-03-16T12:52:22.404Z,1.10
2019-03-16T12:54:49.800Z,1.40
2019-03-16T12:57:17.126Z,1.07
2019-03-16T12:59:47.230Z,7.60
2019-03-16T13:02:14.874Z,5.63
2019-03-16T13:04:42.560Z,3.03
2019-03-16T13:07:09.963Z,2.10
2019-03-16T13:09:37.218Z,3.60
2019-03-16T13:12:04.719Z,2.23
2019-03-16T13:14:32.190Z,3.33
2019-03-16T13:17:01.075Z,1.13
2019-03-16T13:19:28.384Z,1.13
2019-03-16T13:21:55.781Z,1.27
2019-03-16T13:24:23.185Z,2.77
2019-03-16T13:26:50.558Z,1.77
2019-03-16T13:29:17.806Z,1.10
2019-03-16T13:31:45.366Z,1.03
2019-03-16T13:34:12.749Z,2.43
2019-03-16T13:36:40.304Z,0.77
2019-03-16T13:39:07.841Z,0.83
2019-03-16T13:41:35.126Z,1.50
2019-03-16T13:44:02.663Z,1.80
2019-03-16T13:46:30.301Z,1.10
2019-03-16T13:48:57.770Z,2.13
2019-03-16T13:51:25.682Z,2.37
2019-03-16T13:53:53.202Z,2.30
2019-03-16T13:56:20.502Z,1.17
2019-03-16T13:58:49.576Z,3.67
2019-03-16T14:01:17.476Z,1.70
2019-03-16T14:03:44.853Z,1.20
2019-03-16T14:06:12.473Z,1.20
2019-03-16T14:08:40.178Z,0.80
2019-03-16T14:11:07.566Z,1.13
2019-03-16T14:13:34.972Z,2.17
2019-03-16T14:16:02.383Z,0.97
2019-03-16T14:18:29.735Z,1.50
2019-03-16T14:20:56.997Z,0.80
2019-03-16T14:23:24.280Z,1.50
2019-03-16T14:25:51.764Z,5.40
2019-03-16T14:28:19.776Z,1.10
2019-03-16T14:30:47.483Z,1.23
2019-03-16T14:33:14.791Z,0.90
2019-03-16T14:35:41.935Z,1.10
2019-03-16T14:38:09.194Z,1.60
2019-03-16T14:40:36.850Z,0.70
2019-03-16T14:43:04.203Z,3.40
2019-03-16T14:45:33.071Z,2.77
2019-03-16T14:48:00.880Z,1.83
2019-03-16T14:50:28.626Z,2.83
2019-03-16T14:52:56.494Z,1.13
2019-03-16T14:55:23.774Z,1.30
2019-03-16T14:57:52.298Z,1.43
2019-03-16T15:00:19.599Z,1.20
2019-03-16T15:02:47.021Z,1.83
2019-03-16T15:05:14.700Z,1.33
2019-03-16T15:07:42.380Z,1.60
2019-03-16T15:10:11.169Z,1.00
2019-03-16T15:12:38.642Z,1.73
2019-03-16T15:15:07.659Z,1.80
2019-03-16T15:17:35.295Z,3.50
2019-03-16T15:20:02.652Z,1.27
2019-03-16T15:22:30.089Z,1.80
2019-03-16T15:24:57.616Z,1.40
2019-03-16T15:27:24.885Z,2.10
2019-03-16T15:29:52.408Z,4.60
2019-03-16T15:32:19.768Z,4.37
2019-03-16T15:34:47.161Z,2.47
2019-03-16T15:37:14.419Z,1.50
2019-03-16T15:39:41.821Z,1.07
2019-03-16T15:42:10.064Z,2.37
2019-03-16T15:44:38.249Z,2.43
2019-03-16T15:47:05.768Z,4.80
2019-03-16T15:49:33.029Z,2.37
2019-03-16T15:52:00.485Z,2.13
2019-03-16T15:54:27.924Z,2.47
2019-03-16T15:56:55.385Z,3.00
2019-03-16T15:59:22.631Z,1.40
2019-03-16T16:01:49.913Z,1.43
2019-03-16T16:04:17.270Z,1.60
2019-03-16T16:06:45.196Z,3.20
2019-03-16T16:09:12.489Z,1.97
2019-03-16T16:11:39.972Z,1.03
2019-03-16T16:14:07.232Z,2.13
2019-03-16T16:16:34.605Z,1.87
2019-03-16T16:19:02.037Z,2.17
2019-03-16T16:21:29.627Z,5.73
2019-03-16T16:23:57.389Z,3.73
2019-03-16T16:26:24.627Z,3.53
2019-03-16T16:28:52.090Z,2.67
2019-03-16T16:31:19.450Z,2.40
2019-03-16T16:33:46.711Z,3.30
2019-03-16T16:36:13.930Z,1.40
2019-03-16T16:38:42.206Z,1.40
2019-03-16T16:41:09.455Z,4.53
2019-03-16T16:43:36.943Z,4.50
2019-03-16T16:46:04.325Z,2.90
2019-03-16T16:48:31.820Z,5.83
2019-03-16T16:50:59.061Z,3.47
2019-03-16T16:53:26.436Z,2.60
2019-03-16T16:55:53.807Z,10.93
2019-03-16T16:58:21.288Z,6.13
2019-03-16T17:00:48.746Z,3.67
2019-03-16T17:03:16.265Z,3.30
2019-03-16T17:05:43.882Z,7.27
2019-03-16T17:08:11.369Z,6.00
2019-03-16T17:10:38.524Z,3.90
2019-03-16T17:13:05.951Z,4.07
2019-03-16T17:15:33.371Z,2.90
2019-03-16T17:18:01.045Z,2.23
2019-03-16T17:20:28.431Z,7.33
2019-03-16T17:22:55.866Z,11.13
2019-03-16T17:25:23.227Z,4.60
2019-03-16T17:27:50.489Z,15.87
2019-03-16T17:30:18.184Z,7.57
2019-03-16T17:32:45.670Z,8.03
2019-03-16T17:35:13.097Z,9.33
2019-03-16T17:37:40.696Z,5.37
2019-03-16T17:40:08.517Z,7.37
2019-03-16T17:42:36.088Z,5.87
2019-03-16T17:45:04.048Z,3.60
2019-03-16T17:47:31.909Z,4.00
2019-03-16T17:49:59.094Z,5.10
2019-03-16T17:52:26.393Z,4.67
2019-03-16T17:54:53.846Z,4.20
2019-03-16T17:57:21.513Z,6.73
2019-03-16T17:59:48.932Z,4.40
2019-03-16T18:02:16.213Z,6.60
2019-03-16T18:04:43.963Z,6.00
2019-03-16T18:07:11.751Z,5.10
2019-03-16T18:09:39.157Z,5.27
2019-03-16T18:12:06.308Z,9.57
2019-03-16T18:14:35.384Z,3.67
2019-03-16T18:17:03.128Z,4.50
2019-03-16T18:19:30.376Z,3.43
2019-03-16T18:21:57.777Z,4.10
2019-03-16T18:24:25.230Z,2.07
2019-03-16T18:26:52.933Z,1.90
2019-03-16T18:29:20.296Z,4.57
2019-03-16T18:31:47.583Z,2.93
2019-03-16T18:34:15.159Z,4.30
2019-03-16T18:36:43.258Z,2.43
2019-03-16T18:39:10.606Z,2.80
2019-03-16T18:41:38.407Z,1.53
2019-03-16T18:44:06.054Z,4.83
2019-03-16T18:46:34.465Z,1.63
2019-03-16T18:49:01.689Z,4.47
2019-03-16T18:51:28.860Z,1.70
2019-03-16T18:53:56.331Z,2.17
2019-03-16T18:56:23.903Z,2.87
2019-03-16T18:58:51.303Z,4.73
2019-03-16T19:01:19.147Z,4.30
2019-03-16T19:03:46.298Z,6.03
2019-03-16T19:06:15.400Z,5.10
2019-03-16T19:08:43.919Z,3.57
2019-03-16T19:11:11.149Z,6.73
2019-03-16T19:13:38.615Z,10.40
2019-03-16T19:16:06.090Z,9.43
2019-03-16T19:18:33.377Z,9.37
2019-03-16T19:21:00.742Z,9.73
2019-03-16T19:23:28.128Z,9.17
2019-03-16T19:25:55.551Z,6.27
2019-03-16T19:28:22.825Z,7.73
2019-03-16T19:30:50.114Z,16.20
2019-03-16T19:33:17.546Z,15.77
2019-03-16T19:35:44.869Z,8.87
2019-03-16T19:38:13.429Z,11.23
2019-03-16T19:40:41.080Z,11.00
2019-03-16T19:43:09.350Z,19.30
2019-03-16T19:45:36.639Z,13.57
2019-03-16T19:48:04.032Z,10.60
2019-03-16T19:50:31.445Z,17.17
2019-03-16T19:52:59.965Z,9.00
2019-03-16T19:55:27.369Z,15.77
2019-03-16T19:57:54.721Z,16.77
2019-03-16T20:00:22.177Z,8.70
2019-03-16T20:02:51.594Z,10.50
2019-03-16T20:05:18.808Z,7.23
2019-03-16T20:07:48.191Z,3.83
2019-03-16T20:10:15.571Z,13.50
2019-03-16T20:12:42.809Z,5.03
2019-03-16T20:15:11.184Z,3.10
2019-03-16T20:17:38.816Z,2.90
2019-03-16T20:20:08.629Z,2.00
2019-03-16T20:22:36.771Z,3.47
2019-03-16T20:25:04.847Z,3.87
2019-03-16T20:27:32.327Z,6.67
2019-03-16T20:29:59.983Z,7.83
2019-03-16T20:32:27.426Z,8.97
2019-03-16T20:34:54.793Z,9.57
2019-03-16T20:37:22.306Z,5.00
2019-03-16T20:39:49.701Z,4.93
2019-03-16T20:42:16.908Z,5.67
2019-03-16T20:44:44.358Z,2.67
2019-03-16T20:47:12.179Z,12.33
2019-03-16T20:49:39.673Z,10.07
2019-03-16T20:52:07.447Z,9.80
2019-03-16T20:54:34.571Z,16.30
2019-03-16T20:57:02.207Z,11.57
2019-03-16T20:59:30.768Z,5.90
2019-03-16T21:01:58.167Z,15.70
2019-03-16T21:04:25.928Z,12.13
2019-03-16T21:06:53.307Z,4.80
2019-03-16T21:09:20.679Z,4.40
2019-03-16T21:11:49.440Z,4.00
2019-03-16T21:14:16.814Z,3.20
2019-03-16T21:16:44.257Z,2.93
2019-03-16T21:19:11.824Z,3.27
2019-03-16T21:21:39.405Z,1.80
2019-03-16T21:24:07.537Z,3.37
2019-03-16T21:26:36.927Z,3.60
2019-03-16T21:29:04.176Z,2.83
2019-03-16T21:31:31.553Z,2.93
2019-03-16T21:33:58.924Z,2.30
2019-03-16T21:36:26.325Z,2.43
2019-03-16T21:38:53.782Z,4.87
2019-03-16T21:41:21.003Z,2.47
2019-03-16T21:43:48.151Z,2.80
2019-03-16T21:46:15.884Z,2.37
2019-03-16T21:48:43.271Z,3.57
2019-03-16T21:51:10.599Z,2.93
2019-03-16T21:53:37.890Z,2.27
2019-03-16T21:56:05.265Z,3.03
2019-03-16T21:58:32.735Z,3.27
2019-03-16T22:01:01.214Z,3.70
2019-03-16T22:03:41.439Z,4.13
2019-03-16T22:05:58.915Z,4.37
2019-03-16T22:08:26.450Z,5.47
2019-03-16T22:10:53.797Z,4.27
2019-03-16T22:13:21.132Z,4.00
2019-03-16T22:15:48.556Z,3.17
2019-03-16T22:18:16.200Z,3.73
2019-03-16T22:20:43.735Z,3.27
2019-03-16T22:23:11.307Z,2.93
2019-03-16T22:25:38.543Z,6.70
2019-03-16T22:28:06.149Z,7.83
2019-03-16T22:30:33.484Z,5.20
2019-03-16T22:33:01.223Z,5.80
2019-03-16T22:35:28.610Z,3.30
2019-03-16T22:37:56.003Z,6.77
2019-03-16T22:40:24.652Z,7.73
2019-03-16T22:42:51.909Z,6.83
2019-03-16T22:45:19.301Z,5.67
2019-03-16T22:47:46.586Z,5.60
2019-03-16T22:50:15.261Z,9.20
2019-03-16T22:52:42.807Z,7.80
2019-03-16T22:55:11.656Z,7.20
2019-03-16T22:57:40.063Z,12.47
2019-03-16T23:00:09.958Z,10.17
2019-03-16T23:02:39.219Z,7.03
2019-03-16T23:05:08.360Z,10.57
2019-03-16T23:07:36.887Z,7.20
2019-03-16T23:10:05.722Z,9.37
2019-03-16T23:12:33.165Z,5.90
2019-03-16T23:15:00.380Z,4.37
2019-03-16T23:17:27.877Z,4.87
2019-03-16T23:19:55.463Z,7.53
2019-03-16T23:22:22.843Z,7.60
2019-03-16T23:24:50.225Z,5.47
2019-03-16T23:27:18.276Z,7.30
2019-03-16T23:29:45.746Z,6.87
2019-03-16T23:32:13.146Z,8.00
2019-03-16T23:34:40.712Z,6.77
2019-03-16T23:37:08.618Z,6.40
2019-03-16T23:39:36.098Z,10.67
2019-03-16T23:42:03.529Z,9.10
2019-03-16T23:44:33.745Z,10.73
2019-03-16T23:47:00.320Z,8.97
2019-03-16T23:49:28.042Z,8.70
2019-03-16T23:51:55.529Z,2.27
2019-03-16T23:54:23.292Z,2.40
2019-03-16T23:56:50.612Z,1.03
2019-03-16T23:59:17.954Z,3.10
